Latest Weather Observations for Ngukurr AWS

IDD60801

Issued at 11:35 am CST Tuesday 21 October 2014 (issued every 30 minutes, with the page automatically refreshed every 10 minutes)

About weather observations | Map of weather stations | Latest weather observations for NT | Other Formats
Station Details ID: 014299 Name: NGUKURR AIRPORT Lat: -14.72 Lon: 134.75 Height: 14.46 m
Data from the previous 72 hours. | See also: Recent months at Ngukurr AWS
Date/Time
CST
Temp
°C
App
Temp
°C
Dew
Point
Rel
Hum
%
Delta-T
°C
Wind Press
QNH
hPa
Press
MSL
hPa
Rain
since 9 am
mm
Dir
 
Spd
km/h
Gust
km/h
Spd
kts
Gust
kts
21/11:30am 35.2 31.2 8.9 20 15.0 E 20 33 11 18 1015.1 1015.0 0.0
21/11:00am 34.9 31.9 10.7 23 14.1 NE 17 24 9 13 1015.4 1015.3 0.0
21/10:30am 34.0 31.9 12.4 27 12.9 ENE 15 22 8 12 1015.9 1015.8 0.0
21/10:00am 32.9 30.5 12.5 29 12.1 NE 17 26 9 14 1016.2 1016.1 0.0
21/09:30am 31.1 30.9 16.7 42 9.1 E 13 19 7 10 1016.5 1016.4 0.0
21/09:00am 29.3 31.8 19.0 53 6.7 ENE 4 7 2 4 1016.5 1016.4 0.0
21/08:30am 27.3 31.3 21.3 69 4.0 WSW 2 6 1 3 1016.5 1016.4 0.0
21/08:00am 25.9 30.1 21.8 78 2.7 SW 2 6 1 3 1016.4 1016.3 0.0
21/07:30am 24.7 28.7 22.0 85 1.8 S 4 7 2 4 1016.2 1016.1 0.0
21/07:00am 22.8 27.3 21.6 93 0.8 CALM 0 0 0 0 1015.7 1015.6 0.0
21/06:30am 21.1 25.2 20.8 98 0.2 CALM 0 0 0 0 1015.4 1015.3 0.0
21/06:00am 20.8 24.4 19.8 94 0.6 CALM 0 0 0 0 1015.0 1014.9 0.0
21/05:30am 21.1 24.8 19.9 93 0.8 CALM 0 0 0 0 1014.6 1014.5 0.0
21/05:00am 21.4 25.3 20.4 94 0.6 CALM 0 0 0 0 1014.2 1014.1 0.0
21/04:30am 21.9 26.1 20.9 94 0.7 CALM 0 0 0 0 1014.0 1013.9 0.0
21/04:00am 22.2 25.8 21.2 94 0.7 SSE 4 4 2 2 1013.9 1013.8 0.0
21/03:30am 22.6 26.9 21.1 91 1.0 CALM 0 0 0 0 1013.6 1013.5 0.0
21/03:00am 22.9 27.0 20.8 88 1.4 CALM 0 0 0 0 1013.7 1013.6 0.0
21/02:30am 23.8 27.4 21.3 86 1.6 ENE 4 4 2 2 1013.8 1013.7 0.0
21/02:00am 24.2 27.6 21.7 86 1.7 E 6 7 3 4 1014.0 1013.9 0.0
21/01:30am 24.4 28.2 21.7 85 1.8 ENE 4 6 2 3 1014.0 1013.9 0.0
21/01:00am 24.6 28.0 21.7 84 1.9 NE 6 9 3 5 1014.2 1014.1 0.0
21/12:30am 24.9 28.2 21.8 83 2.1 NE 7 11 4 6 1014.5 1014.4 0.0
21/12:00am 25.1 27.6 21.8 82 2.2 NE 11 17 6 9 1014.4 1014.3 0.0
 
Date/Time
CST
Temp
°C
App
Temp
°C
Dew
Point
Rel
Hum
%
Delta-T
°C
Wind Press
QNH
hPa
Press
MSL
hPa
Rain
since 9 am
mm
Dir
 
Spd
km/h
Gust
km/h
Spd
kts
Gust
kts
20/11:30pm 25.2 28.2 21.9 82 2.2 NNE 9 13 5 7 1015.0 1014.9 0.0
20/11:00pm 25.5 28.8 21.8 80 2.5 NE 7 11 4 6 1015.2 1015.1 0.0
20/10:30pm 25.7 28.1 21.6 78 2.7 NE 11 15 6 8 1015.2 1015.1 0.0
20/10:00pm 25.9 28.3 21.6 77 2.9 ENE 11 15 6 8 1015.1 1015.0 0.0
20/09:30pm 26.1 29.0 21.1 74 3.3 ENE 7 13 4 7 1015.1 1015.0 0.0
20/09:00pm 26.5 28.9 20.8 71 3.8 ENE 9 13 5 7 1014.9 1014.8 0.0
20/08:30pm 26.9 29.5 20.5 68 4.2 ENE 7 11 4 6 1014.5 1014.4 0.0
20/08:00pm 27.5 28.7 19.8 63 5.0 ENE 13 20 7 11 1014.2 1014.1 0.0
20/07:30pm 28.3 28.9 18.7 56 6.2 E 13 20 7 11 1013.8 1013.7 0.0
20/07:00pm 29.1 29.4 17.9 50 7.1 E 13 20 7 11 1013.3 1013.2 0.0
20/06:30pm 30.1 28.9 16.1 42 8.7 E 17 22 9 12 1012.8 1012.7 0.0
20/06:00pm 30.9 28.5 14.5 37 10.0 E 20 24 11 13 1012.4 1012.3 0.0
20/05:30pm 32.1 29.3 13.3 31 11.3 E 20 28 11 15 1012.0 1011.9 0.0
20/05:00pm 33.5 30.0 10.8 25 13.2 E 20 30 11 16 1011.6 1011.5 0.0
20/04:30pm 34.3 30.0 9.5 22 14.2 E 22 32 12 17 1011.3 1011.2 0.0
20/04:00pm 35.6 31.1 8.4 19 15.4 E 22 32 12 17 1011.4 1011.3 0.0
20/03:30pm 35.8 31.5 7.0 17 16.0 ESE 19 32 10 17 1011.5 1011.4 0.0
20/03:00pm 36.2 32.0 7.3 17 16.1 ESE 19 32 10 17 1011.6 1011.5 0.0
20/02:30pm 35.6 29.5 6.8 17 15.9 ESE 28 41 15 22 1011.9 1011.8 0.0
20/02:00pm 35.6 31.1 8.4 19 15.4 ESE 22 33 12 18 1012.3 1012.2 0.0
20/01:30pm 35.4 29.9 7.5 18 15.6 ESE 26 41 14 22 1012.7 1012.6 0.0
20/01:00pm 35.5 30.9 9.8 21 14.9 ESE 24 33 13 18 1013.2 1013.1 0.0
20/12:30pm 34.0 30.6 11.2 25 13.4 ESE 20 28 11 15 1014.0 1013.9 0.0
20/12:00pm 34.6 31.3 14.0 29 12.6 E 24 33 13 18 1014.6 1014.5 0.0
20/11:30am 34.3 31.7 13.2 28 12.8 E 19 33 10 18 1015.1 1015.0 0.0
20/11:00am 33.7 30.5 13.2 29 12.4 E 22 37 12 20 1015.3 1015.2 0.0
20/10:30am 33.0 31.7 13.6 31 11.7 E 13 20 7 11 1015.5 1015.4 0.0
20/10:00am 32.9 31.9 13.5 30 11.7 ESE 11 22 6 12 1015.4 1015.3 0.0
20/09:30am 30.3 31.9 17.0 44 8.4 ESE 4 7 2 4 1015.5 1015.4 0.0
20/09:00am 28.4 30.0 17.9 53 6.7 S 6 11 3 6 1015.6 1015.5 0.0
20/08:30am 26.7 29.2 19.8 66 4.5 SSW 6 9 3 5 1015.6 1015.5 0.0
20/08:00am 25.2 28.1 21.1 78 2.7 SSW 7 9 4 5 1015.6 1015.5 0.0
20/07:30am 23.4 27.1 21.5 89 1.3 SSW 4 6 2 3 1015.5 1015.4 0.0
20/07:00am 21.6 25.6 21.3 98 0.2 S 2 4 1 2 1014.9 1014.8 0.0
20/06:30am 19.9 23.0 19.6 98 0.2 SSW 2 4 1 2 1014.8 1014.7 0.0
20/06:00am 20.0 22.4 19.7 98 0.2 SW 6 7 3 4 1014.3 1014.2 0.0
20/05:30am 19.4 22.5 18.6 95 0.5 CALM 0 0 0 0 1014.1 1014.0 0.0
20/05:00am 19.6 22.5 18.1 91 0.9 CALM 0 0 0 0 1013.8 1013.7 0.0
20/04:30am 20.3 23.3 18.4 89 1.2 CALM 0 0 0 0 1013.5 1013.4 0.0
20/04:00am 20.8 24.1 19.1 90 1.1 CALM 0 0 0 0 1013.6 1013.5 0.0
20/03:30am 21.2 24.4 18.9 87 1.4 CALM 0 0 0 0 1013.6 1013.5 0.0
20/03:00am 22.2 26.1 20.3 89 1.2 CALM 0 0 0 0 1013.7 1013.6 0.0
20/02:30am 22.8 26.1 20.0 84 1.8 N 2 4 1 2 1013.9 1013.8 0.0
20/02:00am 23.4 26.6 20.5 84 1.9 NE 4 6 2 3 1014.4 1014.3 0.0
20/01:30am 23.6 26.6 20.1 81 2.3 ENE 4 6 2 3 1014.7 1014.6 0.0
20/01:00am 23.9 27.0 20.2 80 2.4 ENE 4 6 2 3 1015.0 1014.9 0.0
20/12:30am 24.3 27.0 20.2 78 2.7 E 6 7 3 4 1015.0 1014.9 0.0
20/12:00am 24.4 26.9 19.9 76 2.9 ENE 6 9 3 5 1015.2 1015.1 0.0
 
Date/Time
CST
Temp
°C
App
Temp
°C
Dew
Point
Rel
Hum
%
Delta-T
°C
Wind Press
QNH
hPa
Press
MSL
hPa
Rain
since 9 am
mm
Dir
 
Spd
km/h
Gust
km/h
Spd
kts
Gust
kts
19/11:30pm 24.5 26.9 19.6 74 3.2 ENE 6 7 3 4 1015.2 1015.1 0.0
19/11:00pm 25.1 27.5 19.7 72 3.5 ENE 6 7 3 4 1015.5 1015.4 0.0
19/10:30pm 25.7 27.6 19.8 70 3.8 ENE 9 13 5 7 1015.5 1015.4 0.0
19/10:00pm 25.9 28.0 20.2 71 3.7 E 9 15 5 8 1015.6 1015.5 0.0
19/09:30pm 26.3 28.1 20.4 70 3.9 E 11 19 6 10 1015.2 1015.1 0.0
19/09:00pm 26.6 28.3 20.2 68 4.2 E 11 19 6 10 1014.8 1014.7 0.0
19/08:30pm 27.0 27.9 20.1 66 4.5 E 15 22 8 12 1014.5 1014.4 0.0
19/08:00pm 27.4 27.6 20.2 65 4.7 E 19 26 10 14 1014.0 1013.9 0.0
19/07:30pm 28.0 29.0 20.3 63 5.1 E 15 20 8 11 1013.7 1013.6 0.0
19/07:00pm 28.6 29.6 20.3 60 5.5 E 15 22 8 12 1013.3 1013.2 0.0
19/06:30pm 29.4 28.8 18.5 52 7.0 E 19 30 10 16 1013.0 1012.9 0.0
19/06:00pm 30.7 29.6 17.4 45 8.5 E 19 26 10 14 1012.7 1012.6 0.0
19/05:30pm 31.8 29.9 15.7 37 10.0 E 20 32 11 17 1012.2 1012.1 0.0
19/05:00pm 33.0 31.0 15.5 35 10.9 E 20 30 11 16 1011.9 1011.8 0.0
19/04:30pm 33.6 30.6 13.6 29 12.2 E 22 33 12 18 1011.6 1011.5 0.0
19/04:00pm 34.7 31.8 13.0 27 13.1 ESE 20 32 11 17 1011.5 1011.4 0.0
19/03:30pm 35.4 31.6 12.4 25 13.8 ESE 24 39 13 21 1011.4 1011.3 0.0
19/03:00pm 35.0 30.9 11.4 24 14.0 ESE 24 32 13 17 1011.4 1011.3 0.0
19/02:30pm 36.0 32.5 10.9 22 14.8 E 20 35 11 19 1011.7 1011.6 0.0
19/02:00pm 35.5 31.7 9.8 21 14.9 E 20 26 11 14 1011.9 1011.8 0.0
19/01:30pm 35.7 32.3 10.7 22 14.7 ENE 19 28 10 15 1012.3 1012.2 0.0
19/01:00pm 34.8 31.9 13.0 26 13.2 E 20 32 11 17 1012.9 1012.8 0.0
19/12:30pm 34.1 32.2 14.1 30 12.3 ESE 17 26 9 14 1013.3 1013.2 0.0
19/12:00pm 33.6 31.6 16.5 36 10.8 ESE 22 33 12 18 1013.9 1013.8 0.0
19/11:30am 33.6 32.7 16.9 37 10.6 ENE 17 30 9 16 1014.4 1014.3 0.0
19/11:00am 32.0 31.2 17.9 43 9.1 E 19 30 10 16 1014.9 1014.8 0.0
19/10:30am 31.8 31.0 18.4 45 8.7 ENE 20 30 11 16 1015.3 1015.2 0.0
19/10:00am 30.9 30.6 19.6 51 7.4 NE 20 33 11 18 1015.3 1015.2 0.0
19/09:30am 30.1 31.8 20.1 55 6.6 ENE 11 19 6 10 1015.3 1015.2 0.0
19/09:00am 28.5 32.2 21.5 66 4.7 ESE 4 11 2 6 1015.2 1015.1 0.0
19/08:30am 27.9 31.7 21.7 69 4.1 ESE 4 9 2 5 1015.2 1015.1 0.0
19/08:00am 26.6 30.5 21.8 75 3.2 ENE 4 7 2 4 1015.3 1015.2 0.0
19/07:30am 25.7 29.4 22.2 81 2.3 E 6 7 3 4 1015.0 1014.9 0.0
19/07:00am 24.8 29.4 23.2 91 1.1 ESE 4 6 2 3 1014.7 1014.6 0.0
19/06:30am 22.9 28.0 22.6 98 0.2 CALM 0 2 0 1 1014.2 1014.1 0.0
19/06:00am 23.1 27.5 22.8 98 0.2 S 4 6 2 3 1014.0 1013.9 0.0
19/05:30am 23.4 28.0 23.1 98 0.2 SSE 4 7 2 4 1014.0 1013.9 0.0
19/05:00am 23.3 27.8 23.0 98 0.2 SSE 4 9 2 5 1013.7 1013.6 0.0
19/04:30am 23.4 27.6 23.1 98 0.2 SE 6 7 3 4 1013.0 1012.9 0.0
19/04:00am 22.9 27.2 22.6 98 0.2 SSE 4 7 2 4 1012.7 1012.6 0.0
19/03:30am 22.9 27.7 22.1 95 0.5 CALM 0 6 0 3 1012.4 1012.3 0.0
19/03:00am 23.1 27.0 21.9 93 0.8 NNW 4 6 2 3 1012.3 1012.2 0.0
19/02:30am 23.5 27.7 21.8 90 1.1 SE 2 6 1 3 1012.6 1012.5 0.0
19/02:00am 24.2 27.6 21.7 86 1.7 S 6 7 3 4 1012.7 1012.6 0.0
19/01:30am 24.9 28.7 22.4 86 1.7 NNE 6 11 3 6 1012.6 1012.5 0.0
19/01:00am 25.3 28.9 22.4 84 1.9 ENE 7 11 4 6 1013.0 1012.9 0.0
19/12:30am 25.6 28.9 22.5 83 2.1 NE 9 15 5 8 1013.2 1013.1 0.0
19/12:00am 25.8 29.0 22.3 81 2.4 N 9 13 5 7 1013.5 1013.4 0.0
 
Date/Time
CST
Temp
°C
App
Temp
°C
Dew
Point
Rel
Hum
%
Delta-T
°C
Wind Press
QNH
hPa
Press
MSL
hPa
Rain
since 9 am
mm
Dir
 
Spd
km/h
Gust
km/h
Spd
kts
Gust
kts
18/11:30pm 25.8 28.8 21.9 79 2.6 NNE 9 13 5 7 1013.8 1013.7 0.0
18/11:00pm 26.0 29.2 21.7 77 2.9 ENE 7 9 4 5 1014.3 1014.2 0.0
18/10:30pm 26.3 29.2 21.1 73 3.4 E 7 9 4 5 1014.4 1014.3 0.0
18/10:00pm 26.7 29.2 20.3 68 4.2 ENE 7 11 4 6 1014.3 1014.2 0.0
18/09:30pm 27.1 29.1 20.0 65 4.6 E 9 17 5 9 1014.2 1014.1 0.0
18/09:00pm 27.4 28.9 19.7 63 5.0 E 11 19 6 10 1014.0 1013.9 0.0
18/08:30pm 27.7 28.7 20.3 64 4.9 E 15 22 8 12 1013.9 1013.8 0.0
18/08:00pm 28.1 28.6 20.1 62 5.2 E 17 22 9 12 1013.5 1013.4 0.0
18/07:30pm 28.6 28.9 18.7 55 6.4 E 15 20 8 11 1013.1 1013.0 0.0
18/07:00pm 29.1 27.8 17.3 49 7.4 E 20 32 11 17 1012.8 1012.7 0.0
18/06:30pm 30.0 28.2 16.1 43 8.6 E 20 33 11 18 1012.4 1012.3 0.0
18/06:00pm 31.1 27.4 13.8 34 10.4 E 26 35 14 19 1011.9 1011.8 0.0
18/05:30pm 32.7 29.2 12.3 28 12.1 E 22 35 12 19 1011.3 1011.2 0.0
18/05:00pm 33.7 30.4 11.5 26 13.1 ESE 20 28 11 15 1010.9 1010.8 0.0
18/04:30pm 34.9 32.3 13.1 27 13.2 E 19 24 10 13 1010.5 1010.4 0.0
18/04:00pm 35.6 32.6 12.5 24 13.9 ENE 20 28 11 15 1010.4 1010.3 0.0
18/03:30pm 36.5 33.3 12.0 23 14.7 E 20 30 11 16 1010.3 1010.2 0.0
18/03:00pm 36.8 34.7 12.3 23 14.8 E 15 30 8 16 1010.6 1010.5 0.0
18/02:30pm 36.3 32.7 11.9 23 14.6 E 22 32 12 17 1010.7 1010.6 0.0
18/02:00pm 37.0 34.1 11.1 21 15.4 ENE 17 28 9 15 1011.0 1010.9 0.0
18/01:30pm 36.0 33.5 12.3 24 14.3 E 17 32 9 17 1011.5 1011.4 0.0
18/01:00pm 36.1 31.8 8.0 18 15.8 E 20 32 11 17 1012.0 1011.9 0.0
18/12:30pm 36.0 31.9 8.0 18 15.8 ENE 19 35 10 19 1012.7 1012.6 0.0
18/12:00pm 35.8 31.3 4.2 14 16.8 ENE 17 30 9 16 1013.2 1013.1 0.0

Other Formats:

Comma delimited format used in spreadsheet applications
http://www.bom.gov.au/fwo/IDD60801/IDD60801.94106.axf

JavaScript Object Notation format (JSON) in row-major order
http://www.bom.gov.au/fwo/IDD60801/IDD60801.94106.json